sensor_id;sensor_type;location;lat;lon;timestamp;pressure;altitude;pressure_sealevel;temperature;humidity
17615;BME280;8926;49.720;6.576;2023-04-08T00:01:47;100186.31;;;10.35;79.35
17615;BME280;8926;49.720;6.576;2023-04-08T00:04:13;100181.09;;;10.35;79.09
17615;BME280;8926;49.720;6.576;2023-04-08T00:06:38;100187.25;;;10.34;79.06
17615;BME280;8926;49.720;6.576;2023-04-08T00:09:04;100179.41;;;10.34;78.72
17615;BME280;8926;49.720;6.576;2023-04-08T00:11:29;100176.72;;;10.35;79.28
17615;BME280;8926;49.720;6.576;2023-04-08T00:13:55;100170.66;;;10.35;79.62
17615;BME280;8926;49.720;6.576;2023-04-08T00:16:20;100181.09;;;10.35;80.17
17615;BME280;8926;49.720;6.576;2023-04-08T00:18:46;100182.09;;;10.32;80.65
17615;BME280;8926;49.720;6.576;2023-04-08T00:21:13;100183.94;;;10.30;80.38
17615;BME280;8926;49.720;6.576;2023-04-08T00:23:40;100173.56;;;10.29;79.58
17615;BME280;8926;49.720;6.576;2023-04-08T00:26:06;100182.25;;;10.29;80.02
17615;BME280;8926;49.720;6.576;2023-04-08T00:28:31;100177.78;;;10.31;78.76
17615;BME280;8926;49.720;6.576;2023-04-08T00:30:56;100180.41;;;10.31;79.32
17615;BME280;8926;49.720;6.576;2023-04-08T00:33:22;100183.09;;;10.30;79.33
17615;BME280;8926;49.720;6.576;2023-04-08T00:35:49;100178.78;;;10.29;80.16
17615;BME280;8926;49.720;6.576;2023-04-08T00:38:15;100181.53;;;10.26;79.57
17615;BME280;8926;49.720;6.576;2023-04-08T00:40:40;100186.13;;;10.20;79.80
17615;BME280;8926;49.720;6.576;2023-04-08T00:43:06;100187.03;;;10.19;79.32
17615;BME280;8926;49.720;6.576;2023-04-08T00:45:32;100186.19;;;10.19;79.89
17615;BME280;8926;49.720;6.576;2023-04-08T00:47:57;100185.47;;;10.15;80.23
17615;BME280;8926;49.720;6.576;2023-04-08T00:50:23;100191.47;;;10.17;79.21
17615;BME280;8926;49.720;6.576;2023-04-08T00:52:48;100191.41;;;10.19;79.93
17615;BME280;8926;49.720;6.576;2023-04-08T00:55:13;100185.31;;;10.18;80.81
17615;BME280;8926;49.720;6.576;2023-04-08T00:57:39;100191.47;;;10.17;80.47
17615;BME280;8926;49.720;6.576;2023-04-08T01:00:06;100187.16;;;10.16;80.58
17615;BME280;8926;49.720;6.576;2023-04-08T01:02:41;100189.00;;;10.14;80.44
17615;BME280;8926;49.720;6.576;2023-04-08T01:08:07;100190.53;;;10.18;79.63
17615;BME280;8926;49.720;6.576;2023-04-08T01:10:36;100202.72;;;10.19;79.99
17615;BME280;8926;49.720;6.576;2023-04-08T01:13:04;100197.50;;;10.19;78.96
17615;BME280;8926;49.720;6.576;2023-04-08T01:15:34;100193.28;;;10.15;80.06
17615;BME280;8926;49.720;6.576;2023-04-08T01:18:05;100204.84;;;10.11;79.76
17615;BME280;8926;49.720;6.576;2023-04-08T01:20:31;100203.28;;;10.07;79.10
17615;BME280;8926;49.720;6.576;2023-04-08T01:25:35;100201.88;;;10.00;78.84
17615;BME280;8926;49.720;6.576;2023-04-08T01:28:05;100205.41;;;9.99;78.85
17615;BME280;8926;49.720;6.576;2023-04-08T01:30:32;100202.84;;;9.98;79.59
17615;BME280;8926;49.720;6.576;2023-04-08T01:32:59;100204.63;;;9.97;79.46
17615;BME280;8926;49.720;6.576;2023-04-08T01:35:25;100201.88;;;10.00;79.46
17615;BME280;8926;49.720;6.576;2023-04-08T01:37:52;100201.88;;;10.00;80.12
17615;BME280;8926;49.720;6.576;2023-04-08T01:40:18;100198.34;;;10.01;79.92
17615;BME280;8926;49.720;6.576;2023-04-08T01:42:46;100208.16;;;9.96;78.98
17615;BME280;8926;49.720;6.576;2023-04-08T01:45:13;100197.06;;;9.91;78.94
17615;BME280;8926;49.720;6.576;2023-04-08T01:47:40;100196.34;;;9.87;78.98
17615;BME280;8926;49.720;6.576;2023-04-08T01:50:06;100204.28;;;9.86;79.36
17615;BME280;8926;49.720;6.576;2023-04-08T01:52:34;100198.22;;;9.85;79.20
17615;BME280;8926;49.720;6.576;2023-04-08T01:55:00;100197.22;;;9.88;78.96
17615;BME280;8926;49.720;6.576;2023-04-08T01:57:27;100204.28;;;9.86;78.65
17615;BME280;8926;49.720;6.576;2023-04-08T01:59:55;100195.69;;;9.84;79.08
17615;BME280;8926;49.720;6.576;2023-04-08T02:02:23;100207.09;;;9.81;79.30
17615;BME280;8926;49.720;6.576;2023-04-08T02:04:50;100202.03;;;9.78;79.69
17615;BME280;8926;49.720;6.576;2023-04-08T02:07:15;100199.47;;;9.77;79.22
17615;BME280;8926;49.720;6.576;2023-04-08T02:09:41;100201.19;;;9.78;78.75
17615;BME280;8926;49.720;6.576;2023-04-08T02:12:07;100199.47;;;9.77;78.97
17615;BME280;8926;49.720;6.576;2023-04-08T02:14:32;100207.25;;;9.78;79.10
17615;BME280;8926;49.720;6.576;2023-04-08T02:17:06;100208.22;;;9.76;79.25
17615;BME280;8926;49.720;6.576;2023-04-08T02:19:59;100206.53;;;9.75;79.07
17615;BME280;8926;49.720;6.576;2023-04-08T02:22:56;100215.00;;;9.80;78.86
17615;BME280;8926;49.720;6.576;2023-04-08T02:25:24;100211.47;;;9.81;78.38
17615;BME280;8926;49.720;6.576;2023-04-08T02:27:53;100218.53;;;9.79;78.82
17615;BME280;8926;49.720;6.576;2023-04-08T02:30:20;100211.63;;;9.78;77.91
17615;BME280;8926;49.720;6.576;2023-04-08T02:32:46;100220.34;;;9.77;78.13
17615;BME280;8926;49.720;6.576;2023-04-08T02:35:13;100217.53;;;9.81;77.80
17615;BME280;8926;49.720;6.576;2023-04-08T02:37:39;100223.47;;;9.85;77.90
17615;BME280;8926;49.720;6.576;2023-04-08T02:40:29;100220.88;;;9.85;77.56
17615;BME280;8926;49.720;6.576;2023-04-08T02:42:55;100221.78;;;9.84;77.66
17615;BME280;8926;49.720;6.576;2023-04-08T02:45:22;100219.94;;;9.86;77.41
17615;BME280;8926;49.720;6.576;2023-04-08T02:47:48;100217.22;;;9.87;77.00
17615;BME280;8926;49.720;6.576;2023-04-08T02:50:14;100217.16;;;9.89;76.41
17615;BME280;8926;49.720;6.576;2023-04-08T02:52:39;100221.47;;;9.90;76.56
17615;BME280;8926;49.720;6.576;2023-04-08T02:55:05;100217.94;;;9.91;76.79
17615;BME280;8926;49.720;6.576;2023-04-08T02:57:33;100217.34;;;9.86;77.02
17615;BME280;8926;49.720;6.576;2023-04-08T02:59:59;100213.31;;;9.79;77.17
17615;BME280;8926;49.720;6.576;2023-04-08T03:02:24;100223.75;;;9.79;77.08
17615;BME280;8926;49.720;6.576;2023-04-08T03:04:50;100212.59;;;9.75;77.61
17615;BME280;8926;49.720;6.576;2023-04-08T03:07:15;100215.41;;;9.71;77.66
17615;BME280;8926;49.720;6.576;2023-04-08T03:09:40;100229.38;;;9.70;78.13
17615;BME280;8926;49.720;6.576;2023-04-08T03:12:06;100217.25;;;9.69;78.71
17615;BME280;8926;49.720;6.576;2023-04-08T03:14:31;100219.97;;;9.66;78.00
17615;BME280;8926;49.720;6.576;2023-04-08T03:16:56;100221.03;;;9.62;78.25
17615;BME280;8926;49.720;6.576;2023-04-08T03:19:22;100224.59;;;9.61;78.54
17615;BME280;8926;49.720;6.576;2023-04-08T03:21:47;100217.69;;;9.60;77.97
17615;BME280;8926;49.720;6.576;2023-04-08T03:24:12;100223.81;;;9.59;78.96
17615;BME280;8926;49.720;6.576;2023-04-08T03:26:37;100219.50;;;9.58;78.06
17615;BME280;8926;49.720;6.576;2023-04-08T03:29:03;100217.81;;;9.57;77.76
17615;BME280;8926;49.720;6.576;2023-04-08T03:31:28;100221.19;;;9.59;78.14
17615;BME280;8926;49.720;6.576;2023-04-08T03:33:53;100225.63;;;9.57;77.49
17615;BME280;8926;49.720;6.576;2023-04-08T03:36:19;100218.00;;;9.52;78.21
17615;BME280;8926;49.720;6.576;2023-04-08T03:38:44;100228.50;;;9.50;77.56
17615;BME280;8926;49.720;6.576;2023-04-08T03:41:09;100228.44;;;9.52;78.50
17615;BME280;8926;49.720;6.576;2023-04-08T03:43:35;100230.06;;;9.55;77.57
17615;BME280;8926;49.720;6.576;2023-04-08T03:46:01;100236.91;;;9.57;77.35
17615;BME280;8926;49.720;6.576;2023-04-08T03:48:26;100238.81;;;9.53;77.70
17615;BME280;8926;49.720;6.576;2023-04-08T03:50:52;100234.44;;;9.54;77.01
17615;BME280;8926;49.720;6.576;2023-04-08T03:53:17;100237.91;;;9.55;76.67
17615;BME280;8926;49.720;6.576;2023-04-08T03:55:43;100234.38;;;9.56;76.90
17615;BME280;8926;49.720;6.576;2023-04-08T03:58:08;100233.47;;;9.57;76.64
17615;BME280;8926;49.720;6.576;2023-04-08T04:00:34;100236.13;;;9.55;76.77
17615;BME280;8926;49.720;6.576;2023-04-08T04:02:59;100231.91;;;9.52;76.42
17615;BME280;8926;49.720;6.576;2023-04-08T04:05:25;100230.34;;;9.48;76.63
17615;BME280;8926;49.720;6.576;2023-04-08T04:07:50;100227.88;;;9.45;77.09
17615;BME280;8926;49.720;6.576;2023-04-08T04:10:16;100228.91;;;9.41;76.07
17615;BME280;8926;49.720;6.576;2023-04-08T04:12:41;100227.34;;;9.37;75.58
17615;BME280;8926;49.720;6.576;2023-04-08T04:15:06;100232.84;;;9.31;77.19
17615;BME280;8926;49.720;6.576;2023-04-08T04:17:32;100237.34;;;9.28;76.62
17615;BME280;8926;49.720;6.576;2023-04-08T04:19:57;100233.13;;;9.25;77.06
17615;BME280;8926;49.720;6.576;2023-04-08T04:22:22;100238.31;;;9.25;76.96
17615;BME280;8926;49.720;6.576;2023-04-08T04:24:48;100227.91;;;9.25;76.67
17615;BME280;8926;49.720;6.576;2023-04-08T04:27:14;100234.94;;;9.23;76.98
17615;BME280;8926;49.720;6.576;2023-04-08T04:29:42;100236.75;;;9.21;77.09
17615;BME280;8926;49.720;6.576;2023-04-08T04:32:07;100235.19;;;9.17;77.21
17615;BME280;8926;49.720;6.576;2023-04-08T04:34:33;100240.41;;;9.17;76.33
17615;BME280;8926;49.720;6.576;2023-04-08T04:36:58;100243.88;;;9.17;77.01
17615;BME280;8926;49.720;6.576;2023-04-08T04:39:23;100245.75;;;9.14;76.72
17615;BME280;8926;49.720;6.576;2023-04-08T04:41:49;100247.56;;;9.12;76.90
17615;BME280;8926;49.720;6.576;2023-04-08T04:44:14;100252.78;;;9.12;77.27
17615;BME280;8926;49.720;6.576;2023-04-08T04:46:40;100258.16;;;9.09;76.46
17615;BME280;8926;49.720;6.576;2023-04-08T04:49:05;100253.97;;;9.05;76.88
17615;BME280;8926;49.720;6.576;2023-04-08T04:51:31;100259.97;;;9.07;77.53
17615;BME280;8926;49.720;6.576;2023-04-08T04:53:57;100259.97;;;9.07;77.46
17615;BME280;8926;49.720;6.576;2023-04-08T04:56:22;100259.97;;;9.07;76.98
17615;BME280;8926;49.720;6.576;2023-04-08T04:58:48;100264.28;;;9.08;76.83
17615;BME280;8926;49.720;6.576;2023-04-08T05:01:13;100262.38;;;9.11;76.50
17615;BME280;8926;49.720;6.576;2023-04-08T05:03:38;100259.81;;;9.10;76.68
17615;BME280;8926;49.720;6.576;2023-04-08T05:06:03;100264.13;;;9.11;77.01
17615;BME280;8926;49.720;6.576;2023-04-08T05:08:29;100263.22;;;9.12;76.32
17615;BME280;8926;49.720;6.576;2023-04-08T05:10:55;100268.59;;;9.09;77.23
17615;BME280;8926;49.720;6.576;2023-04-08T05:13:20;100271.19;;;9.09;77.26
17615;BME280;8926;49.720;6.576;2023-04-08T05:15:46;100269.34;;;9.11;77.21
17615;BME280;8926;49.720;6.576;2023-04-08T05:18:11;100271.03;;;9.12;77.16
17615;BME280;8926;49.720;6.576;2023-04-08T05:20:36;100280.41;;;9.16;76.70
17615;BME280;8926;49.720;6.576;2023-04-08T05:23:02;100274.28;;;9.17;76.93
17615;BME280;8926;49.720;6.576;2023-04-08T05:25:28;100278.72;;;9.15;77.08
17615;BME280;8926;49.720;6.576;2023-04-08T05:27:54;100276.13;;;9.15;77.12
17615;BME280;8926;49.720;6.576;2023-04-08T05:30:20;100283.03;;;9.16;77.13
17615;BME280;8926;49.720;6.576;2023-04-08T05:32:45;100288.13;;;9.19;76.57
17615;BME280;8926;49.720;6.576;2023-04-08T05:35:11;100287.19;;;9.20;76.87
17615;BME280;8926;49.720;6.576;2023-04-08T05:37:36;100286.28;;;9.21;76.10
17615;BME280;8926;49.720;6.576;2023-04-08T05:40:01;100292.41;;;9.20;76.88
17615;BME280;8926;49.720;6.576;2023-04-08T05:42:27;100282.72;;;9.24;76.18
17615;BME280;8926;49.720;6.576;2023-04-08T05:44:52;100294.78;;;9.26;75.98
17615;BME280;8926;49.720;6.576;2023-04-08T05:47:17;100295.56;;;9.28;76.09
17615;BME280;8926;49.720;6.576;2023-04-08T05:49:43;100295.56;;;9.28;76.20
17615;BME280;8926;49.720;6.576;2023-04-08T05:52:08;100295.44;;;9.31;76.39
17615;BME280;8926;49.720;6.576;2023-04-08T05:54:33;100306.66;;;9.33;76.29
17615;BME280;8926;49.720;6.576;2023-04-08T05:56:58;100307.44;;;9.35;76.08
17615;BME280;8926;49.720;6.576;2023-04-08T05:59:24;100296.06;;;9.36;76.00
17615;BME280;8926;49.720;6.576;2023-04-08T06:01:49;100310.66;;;9.40;76.35
17615;BME280;8926;49.720;6.576;2023-04-08T06:04:14;100314.06;;;9.42;75.93
17615;BME280;8926;49.720;6.576;2023-04-08T06:06:41;100304.47;;;9.43;75.80
17615;BME280;8926;49.720;6.576;2023-04-08T06:09:07;100309.50;;;9.47;75.63
17615;BME280;8926;49.720;6.576;2023-04-08T06:11:33;100312.03;;;9.49;75.84
17615;BME280;8926;49.720;6.576;2023-04-08T06:13:59;100310.28;;;9.49;76.03
17615;BME280;8926;49.720;6.576;2023-04-08T06:16:24;100311.97;;;9.50;75.95
17615;BME280;8926;49.720;6.576;2023-04-08T06:18:49;100303.09;;;9.55;75.42
17615;BME280;8926;49.720;6.576;2023-04-08T06:21:16;100310.00;;;9.56;75.71
17615;BME280;8926;49.720;6.576;2023-04-08T06:23:41;100309.22;;;9.53;75.29
17615;BME280;8926;49.720;6.576;2023-04-08T06:26:06;100316.00;;;9.58;75.46
17615;BME280;8926;49.720;6.576;2023-04-08T06:28:32;100317.53;;;9.62;75.22
17615;BME280;8926;49.720;6.576;2023-04-08T06:30:57;100320.16;;;9.62;75.31
17615;BME280;8926;49.720;6.576;2023-04-08T06:33:23;100325.53;;;9.59;75.15
17615;BME280;8926;49.720;6.576;2023-04-08T06:35:48;100321.84;;;9.63;75.26
17615;BME280;8926;49.720;6.576;2023-04-08T06:38:13;100326.09;;;9.65;75.46
17615;BME280;8926;49.720;6.576;2023-04-08T06:40:39;100323.47;;;9.65;74.90
17615;BME280;8926;49.720;6.576;2023-04-08T06:43:04;100327.53;;;9.72;74.91
17615;BME280;8926;49.720;6.576;2023-04-08T06:45:32;100327.34;;;9.77;74.85
17615;BME280;8926;49.720;6.576;2023-04-08T06:47:57;100331.38;;;9.84;74.90
17615;BME280;8926;49.720;6.576;2023-04-08T06:50:22;100324.03;;;9.92;74.86
17615;BME280;8926;49.720;6.576;2023-04-08T06:52:47;100330.75;;;9.98;74.49
17615;BME280;8926;49.720;6.576;2023-04-08T06:55:13;100335.91;;;9.99;73.81
17615;BME280;8926;49.720;6.576;2023-04-08T06:57:38;100334.06;;;10.01;74.61
17615;BME280;8926;49.720;6.576;2023-04-08T07:00:04;100337.59;;;10.00;74.02
17615;BME280;8926;49.720;6.576;2023-04-08T07:02:29;100332.38;;;10.00;74.38
17615;BME280;8926;49.720;6.576;2023-04-08T07:04:55;100340.97;;;10.02;74.15
17615;BME280;8926;49.720;6.576;2023-04-08T07:07:20;100337.47;;;10.03;74.24
17615;BME280;8926;49.720;6.576;2023-04-08T07:09:45;100346.84;;;10.07;74.13
17615;BME280;8926;49.720;6.576;2023-04-08T07:12:11;100349.31;;;10.10;73.77
17615;BME280;8926;49.720;6.576;2023-04-08T07:14:37;100351.16;;;10.08;73.71
17615;BME280;8926;49.720;6.576;2023-04-08T07:17:02;100351.03;;;10.11;73.71
17615;BME280;8926;49.720;6.576;2023-04-08T07:19:27;100359.53;;;10.15;73.89
17615;BME280;8926;49.720;6.576;2023-04-08T07:21:53;100359.59;;;10.13;74.12
17615;BME280;8926;49.720;6.576;2023-04-08T07:24:18;100365.00;;;10.10;74.14
17615;BME280;8926;49.720;6.576;2023-04-08T07:26:43;100358.06;;;10.09;73.63
17615;BME280;8926;49.720;6.576;2023-04-08T07:29:09;100357.94;;;10.12;74.00
17615;BME280;8926;49.720;6.576;2023-04-08T07:31:34;100359.38;;;10.19;73.72
17615;BME280;8926;49.720;6.576;2023-04-08T07:34:00;100359.75;;;10.31;73.52
17615;BME280;8926;49.720;6.576;2023-04-08T07:36:25;100356.25;;;10.49;73.33
17615;BME280;8926;49.720;6.576;2023-04-08T07:38:50;100362.81;;;10.76;72.64
17615;BME280;8926;49.720;6.576;2023-04-08T07:41:16;100358.03;;;11.03;71.85
17615;BME280;8926;49.720;6.576;2023-04-08T07:43:41;100371.34;;;11.33;71.31
17615;BME280;8926;49.720;6.576;2023-04-08T07:46:06;100365.59;;;11.61;69.97
17615;BME280;8926;49.720;6.576;2023-04-08T07:48:33;100360.88;;;11.85;69.12
17615;BME280;8926;49.720;6.576;2023-04-08T07:51:06;100357.59;;;12.14;68.41
17615;BME280;8926;49.720;6.576;2023-04-08T07:53:32;100362.25;;;12.41;67.78
17615;BME280;8926;49.720;6.576;2023-04-08T07:55:58;100355.34;;;12.71;67.07
17615;BME280;8926;49.720;6.576;2023-04-08T07:58:24;100354.41;;;12.72;66.53
17615;BME280;8926;49.720;6.576;2023-04-08T08:00:50;100357.59;;;12.77;66.13
17615;BME280;8926;49.720;6.576;2023-04-08T08:03:15;100361.41;;;12.87;65.65
17615;BME280;8926;49.720;6.576;2023-04-08T08:05:41;100358.28;;;12.97;65.15
17615;BME280;8926;49.720;6.576;2023-04-08T08:08:06;100367.63;;;13.01;65.82
17615;BME280;8926;49.720;6.576;2023-04-08T08:10:32;100366.78;;;13.00;65.76
17615;BME280;8926;49.720;6.576;2023-04-08T08:12:58;100368.75;;;12.81;65.79
17615;BME280;8926;49.720;6.576;2023-04-08T08:15:23;100372.56;;;12.75;65.76
17615;BME280;8926;49.720;6.576;2023-04-08T08:17:48;100367.69;;;12.69;66.01
17615;BME280;8926;49.720;6.576;2023-04-08T08:20:14;100378.66;;;12.60;66.40
17615;BME280;8926;49.720;6.576;2023-04-08T08:22:39;100377.81;;;12.44;65.90
17615;BME280;8926;49.720;6.576;2023-04-08T08:25:05;100380.59;;;12.41;66.46
17615;BME280;8926;49.720;6.576;2023-04-08T08:27:31;100374.91;;;12.33;66.18
17615;BME280;8926;49.720;6.576;2023-04-08T08:29:58;100379.13;;;12.19;66.34
17615;BME280;8926;49.720;6.576;2023-04-08T08:32:24;100381.38;;;12.10;66.64
17615;BME280;8926;49.720;6.576;2023-04-08T08:34:49;100387.63;;;12.07;66.72
17615;BME280;8926;49.720;6.576;2023-04-08T08:37:14;100380.69;;;12.06;66.77
17615;BME280;8926;49.720;6.576;2023-04-08T08:39:39;100381.31;;;12.11;66.69
17615;BME280;8926;49.720;6.576;2023-04-08T08:42:06;100383.00;;;12.12;66.84
17615;BME280;8926;49.720;6.576;2023-04-08T08:44:32;100387.63;;;12.07;66.46
17615;BME280;8926;49.720;6.576;2023-04-08T08:46:58;100396.81;;;11.99;66.38
17615;BME280;8926;49.720;6.576;2023-04-08T08:49:24;100398.00;;;11.93;66.38
17615;BME280;8926;49.720;6.576;2023-04-08T08:51:51;100394.25;;;11.97;66.86
17615;BME280;8926;49.720;6.576;2023-04-08T08:54:18;100397.81;;;11.96;66.86
17615;BME280;8926;49.720;6.576;2023-04-08T08:56:43;100404.44;;;12.03;66.90
17615;BME280;8926;49.720;6.576;2023-04-08T08:59:08;100406.66;;;12.11;66.98
17615;BME280;8926;49.720;6.576;2023-04-08T09:01:37;100407.34;;;12.14;66.21
17615;BME280;8926;49.720;6.576;2023-04-08T09:04:14;100412.28;;;12.20;66.46
17615;BME280;8926;49.720;6.576;2023-04-08T09:06:41;100409.47;;;12.23;66.43
17615;BME280;8926;49.720;6.576;2023-04-08T09:09:07;100427.78;;;12.23;65.76
17615;BME280;8926;49.720;6.576;2023-04-08T09:11:40;100424.75;;;12.15;65.85
17615;BME280;8926;49.720;6.576;2023-04-08T09:14:25;100420.44;;;12.14;65.87
17615;BME280;8926;49.720;6.576;2023-04-08T09:16:51;100422.91;;;12.17;66.17
17615;BME280;8926;49.720;6.576;2023-04-08T09:19:17;100424.94;;;12.28;65.82
17615;BME280;8926;49.720;6.576;2023-04-08T09:21:43;100420.72;;;12.26;65.60
17615;BME280;8926;49.720;6.576;2023-04-08T09:24:26;100423.63;;;12.37;65.46
17615;BME280;8926;49.720;6.576;2023-04-08T09:26:51;100422.59;;;12.39;65.30
17615;BME280;8926;49.720;6.576;2023-04-08T09:29:16;100423.97;;;12.46;65.31
17615;BME280;8926;49.720;6.576;2023-04-08T09:31:42;100422.94;;;12.49;65.29
17615;BME280;8926;49.720;6.576;2023-04-08T09:36:37;100422.78;;;12.52;64.35
17615;BME280;8926;49.720;6.576;2023-04-08T09:39:03;100424.47;;;12.53;64.97
17615;BME280;8926;49.720;6.576;2023-04-08T09:41:32;100413.34;;;12.65;64.72
17615;BME280;8926;49.720;6.576;2023-04-08T09:43:59;100418.41;;;12.68;63.93
17615;BME280;8926;49.720;6.576;2023-04-08T09:46:39;100414.88;;;12.85;64.82
17615;BME280;8926;49.720;6.576;2023-04-08T09:49:11;100412.59;;;12.95;64.43
17615;BME280;8926;49.720;6.576;2023-04-08T09:52:02;100416.72;;;12.99;63.03
17615;BME280;8926;49.720;6.576;2023-04-08T09:54:41;100413.00;;;13.18;64.20
17615;BME280;8926;49.720;6.576;2023-04-08T09:59:59;100407.03;;;13.46;63.27
17615;BME280;8926;49.720;6.576;2023-04-08T10:02:29;100404.56;;;13.73;62.86
17615;BME280;8926;49.720;6.576;2023-04-08T10:04:58;100403.63;;;13.88;62.87
17615;BME280;8926;49.720;6.576;2023-04-08T10:07:25;100398.50;;;14.01;61.38
17615;BME280;8926;49.720;6.576;2023-04-08T10:09:50;100399.81;;;14.37;60.70
17615;BME280;8926;49.720;6.576;2023-04-08T10:12:16;100398.50;;;14.58;59.67
17615;BME280;8926;49.720;6.576;2023-04-08T10:17:45;100386.94;;;15.81;57.19
17615;BME280;8926;49.720;6.576;2023-04-08T10:22:59;100385.34;;;16.78;53.15
17615;BME280;8926;49.720;6.576;2023-04-08T10:27:50;100381.59;;;17.52;53.51
17615;BME280;8926;49.720;6.576;2023-04-08T10:32:56;100369.81;;;17.80;49.40
17615;BME280;8926;49.720;6.576;2023-04-08T10:35:29;100369.50;;;18.18;50.96
17615;BME280;8926;49.720;6.576;2023-04-08T10:37:56;100368.03;;;18.25;51.08
17615;BME280;8926;49.720;6.576;2023-04-08T10:40:21;100359.50;;;18.22;50.11
17615;BME280;8926;49.720;6.576;2023-04-08T10:42:53;100362.22;;;17.76;48.39
17615;BME280;8926;49.720;6.576;2023-04-08T10:45:18;100359.41;;;17.55;48.75
17615;BME280;8926;49.720;6.576;2023-04-08T10:47:44;100352.66;;;17.86;51.08
17615;BME280;8926;49.720;6.576;2023-04-08T10:53:05;100352.13;;;17.70;49.16
17615;BME280;8926;49.720;6.576;2023-04-08T10:55:31;100358.63;;;17.66;49.34
17615;BME280;8926;49.720;6.576;2023-04-08T10:58:07;100348.81;;;17.90;50.90
17615;BME280;8926;49.720;6.576;2023-04-08T11:00:35;100355.22;;;17.63;51.11
17615;BME280;8926;49.720;6.576;2023-04-08T11:03:08;100355.81;;;17.21;50.46
17615;BME280;8926;49.720;6.576;2023-04-08T11:05:35;100355.94;;;16.95;50.93
17615;BME280;8926;49.720;6.576;2023-04-08T11:08:04;100349.53;;;17.46;50.47
17615;BME280;8926;49.720;6.576;2023-04-08T11:10:32;100352.53;;;17.52;50.77
17615;BME280;8926;49.720;6.576;2023-04-08T11:13:00;100343.94;;;17.61;49.56
17615;BME280;8926;49.720;6.576;2023-04-08T11:15:29;100345.84;;;17.59;50.23
17615;BME280;8926;49.720;6.576;2023-04-08T11:17:54;100343.94;;;17.61;49.29
17615;BME280;8926;49.720;6.576;2023-04-08T11:20:20;100332.44;;;17.74;49.58
17615;BME280;8926;49.720;6.576;2023-04-08T11:22:46;100335.47;;;17.34;49.65
17615;BME280;8926;49.720;6.576;2023-04-08T11:25:12;100346.31;;;16.94;50.40
17615;BME280;8926;49.720;6.576;2023-04-08T11:27:37;100330.34;;;17.20;49.64
17615;BME280;8926;49.720;6.576;2023-04-08T11:30:04;100333.63;;;17.00;50.04
17615;BME280;8926;49.720;6.576;2023-04-08T11:32:30;100324.72;;;17.24;49.86
17615;BME280;8926;49.720;6.576;2023-04-08T11:34:59;100312.13;;;17.74;48.83
17615;BME280;8926;49.720;6.576;2023-04-08T11:37:24;100324.06;;;17.91;49.44
17615;BME280;8926;49.720;6.576;2023-04-08T11:39:50;100316.22;;;18.01;47.75
17615;BME280;8926;49.720;6.576;2023-04-08T11:42:29;100315.81;;;18.50;48.19
17615;BME280;8926;49.720;6.576;2023-04-08T11:44:55;100308.84;;;18.49;47.18
17615;BME280;8926;49.720;6.576;2023-04-08T11:47:20;100307.44;;;18.45;46.99
17615;BME280;8926;49.720;6.576;2023-04-08T11:49:46;100310.44;;;18.29;46.96
17615;BME280;8926;49.720;6.576;2023-04-08T11:52:12;100312.72;;;18.22;47.18
17615;BME280;8926;49.720;6.576;2023-04-08T11:54:41;100306.03;;;18.18;46.98
17615;BME280;8926;49.720;6.576;2023-04-08T11:57:07;100305.41;;;18.37;46.61
17615;BME280;8926;49.720;6.576;2023-04-08T11:59:34;100300.47;;;18.33;45.59
17615;BME280;8926;49.720;6.576;2023-04-08T12:02:01;100301.19;;;18.35;45.12
17615;BME280;8926;49.720;6.576;2023-04-08T12:04:26;100296.56;;;18.59;45.60
17615;BME280;8926;49.720;6.576;2023-04-08T12:06:52;100291.53;;;18.67;44.79
17615;BME280;8926;49.720;6.576;2023-04-08T12:09:17;100290.94;;;18.63;44.35
17615;BME280;8926;49.720;6.576;2023-04-08T12:11:42;100288.91;;;18.34;45.12
17615;BME280;8926;49.720;6.576;2023-04-08T12:14:08;100293.63;;;18.08;45.52
17615;BME280;8926;49.720;6.576;2023-04-08T12:16:33;100290.00;;;18.31;45.28
17615;BME280;8926;49.720;6.576;2023-04-08T12:18:59;100289.41;;;18.27;46.27
17615;BME280;8926;49.720;6.576;2023-04-08T12:21:24;100286.75;;;18.39;45.42
17615;BME280;8926;49.720;6.576;2023-04-08T12:23:49;100286.03;;;18.37;44.05
17615;BME280;8926;49.720;6.576;2023-04-08T12:26:15;100291.69;;;18.32;44.43
17615;BME280;8926;49.720;6.576;2023-04-08T12:28:41;100286.31;;;18.11;44.39
17615;BME280;8926;49.720;6.576;2023-04-08T12:31:06;100288.22;;;18.09;45.58
17615;BME280;8926;49.720;6.576;2023-04-08T12:33:31;100286.09;;;17.92;46.34
17615;BME280;8926;49.720;6.576;2023-04-08T12:35:57;100284.63;;;17.77;45.15
17615;BME280;8926;49.720;6.576;2023-04-08T12:38:24;100290.38;;;17.71;46.97
17615;BME280;8926;49.720;6.576;2023-04-08T12:40:50;100290.31;;;17.48;45.86
17615;BME280;8926;49.720;6.576;2023-04-08T12:43:15;100289.38;;;17.38;47.25
17615;BME280;8926;49.720;6.576;2023-04-08T12:45:41;100291.75;;;17.30;47.18
17615;BME280;8926;49.720;6.576;2023-04-08T12:48:07;100285.47;;;17.20;47.45
17615;BME280;8926;49.720;6.576;2023-04-08T12:50:32;100292.34;;;16.99;47.67
17615;BME280;8926;49.720;6.576;2023-04-08T12:52:58;100296.47;;;16.79;47.01
17615;BME280;8926;49.720;6.576;2023-04-08T12:55:23;100299.09;;;16.55;47.84
17615;BME280;8926;49.720;6.576;2023-04-08T12:57:51;100296.81;;;16.38;47.93
17615;BME280;8926;49.720;6.576;2023-04-08T13:00:17;100299.19;;;16.17;48.23
17615;BME280;8926;49.720;6.576;2023-04-08T13:02:42;100307.66;;;16.09;49.17
17615;BME280;8926;49.720;6.576;2023-04-08T13:05:08;100301.34;;;15.99;49.59
17615;BME280;8926;49.720;6.576;2023-04-08T13:07:34;100304.81;;;15.87;50.10
17615;BME280;8926;49.720;6.576;2023-04-08T13:09:59;100301.38;;;15.74;51.05
17615;BME280;8926;49.720;6.576;2023-04-08T13:12:25;100306.00;;;15.57;51.63
17615;BME280;8926;49.720;6.576;2023-04-08T13:14:51;100303.84;;;15.37;52.37
17615;BME280;8926;49.720;6.576;2023-04-08T13:17:16;100311.63;;;15.26;53.19
17615;BME280;8926;49.720;6.576;2023-04-08T13:19:42;100324.00;;;15.11;53.59
17615;BME280;8926;49.720;6.576;2023-04-08T13:22:07;100319.22;;;14.91;54.55
17615;BME280;8926;49.720;6.576;2023-04-08T13:24:32;100314.69;;;14.93;54.24
17615;BME280;8926;49.720;6.576;2023-04-08T13:26:57;100318.78;;;14.84;54.39